Norway, South Carolina
Current Conditions -  °F | °C
As of 2:53 PM on Thursday 29 Jan 2015 (Local Time) from KOGB Reporting Station
Clear Clear  
Wind Chill: 54°   Ceiling: Unl
Heat Index: 54°   Visibility: 10mi
Dew Point: 21°   Wind: 6mph
Humidity: 28%   Direction: 230°SW
Pressure: 30.23"   Gusts: NA
Location:  33.45°N, 81.13°W
Report Text: KOGB 291953Z AUTO 23005KT 10SM CLR 12/M06 A3023 RMK AO2 SLP238 T01221061
Loading
Personal Weather Stations






























Interactive Weather Map New forecast layout! Learn more

10-Day Weather Forecast

Advertisements
Track Severe Weather on mobile